Time;durP1;ratioP1;P1;durP2;ratioP2;P2;SDS_P1;SDS_P2;PMS_P1;PMS_P2;Temp;Humidity;BMP_temperature;BMP_pressure;BME280_temperature;BME280_humidity;BME280_pressure;Samples;Min_cycle;Max_cycle;Signal;HPM_P1;HPM_P2
2022/04/04 00:01:33;;;;;;;5.00;2.80;;;;;;;-2.56;68.67;98401.98;104996;1271;74366;-27
2022/04/04 00:04:04;;;;;;;4.60;2.80;;;;;;;-2.73;69.06;98409.25;105104;1271;61027;-27
2022/04/04 00:06:34;;;;;;;3.70;2.50;;;;;;;-2.89;69.41;98403.89;105085;1271;61210;-27
2022/04/04 00:09:05;;;;;;;5.70;3.40;;;;;;;-3.00;69.67;98406.66;105110;1271;75751;-27
2022/04/04 00:11:34;;;;;;;4.60;3.20;;;;;;;-3.09;70.04;98413.96;105064;1271;76405;-26
2022/04/04 00:14:08;;;;;;;4.30;2.60;;;;;;;-3.17;70.55;98413.05;104867;1271;74395;-27
2022/04/04 00:16:37;;;;;;;4.40;3.00;;;;;;;-3.07;70.80;98409.98;104679;1272;62455;-30
2022/04/04 00:19:27;;;;;;;3.60;2.20;;;;;;;-2.33;68.34;98412.86;105039;1271;62031;-29
2022/04/04 00:21:56;;;;;;;3.30;2.60;;;;;;;-2.11;66.95;98413.52;104724;1271;75500;-28
2022/04/04 00:24:27;;;;;;;3.60;1.90;;;;;;;-2.18;67.07;98413.29;104916;1271;75950;-28
2022/04/04 00:27:03;;;;;;;2.90;1.70;;;;;;;-2.43;67.65;98408.48;104860;1271;74169;-28
2022/04/04 00:29:32;;;;;;;3.90;1.80;;;;;;;-2.67;68.38;98411.42;104950;1274;61266;-30
2022/04/04 00:32:01;;;;;;;3.10;2.10;;;;;;;-2.92;69.06;98407.91;104925;1271;61140;-29
2022/04/04 00:34:50;;;;;;;3.60;2.10;;;;;;;-3.12;69.89;98411.34;105120;1271;75710;-28
2022/04/04 00:37:19;;;;;;;7.80;3.70;;;;;;;-3.30;70.77;98413.34;105203;1271;74976;-28
2022/04/04 00:39:49;;;;;;;3.40;2.00;;;;;;;-3.43;71.22;98413.08;105016;1271;74381;-28
2022/04/04 00:42:18;;;;;;;4.60;2.30;;;;;;;-3.55;71.96;98416.56;105062;1271;61839;-28
2022/04/04 00:44:47;;;;;;;2.90;2.00;;;;;;;-3.44;72.31;98414.17;105138;1271;62286;-28
2022/04/04 00:47:17;;;;;;;5.30;2.60;;;;;;;-2.77;70.14;98414.34;105006;1271;73090;-28
2022/04/04 00:49:48;;;;;;;1.80;1.60;;;;;;;-2.50;68.81;98412.13;104718;1271;74922;-28
2022/04/04 00:52:17;;;;;;;4.10;2.00;;;;;;;-2.54;68.70;98415.16;104858;1271;74381;-28
2022/04/04 00:54:47;;;;;;;2.50;1.50;;;;;;;-2.75;69.22;98413.57;104851;1271;61102;-28
2022/04/04 00:57:17;;;;;;;3.70;2.40;;;;;;;-2.94;70.17;98421.90;105052;1271;61894;-28
2022/04/04 01:00:09;;;;;;;3.60;2.50;;;;;;;-3.17;70.95;98422.55;104759;1271;75388;-28
2022/04/04 01:02:39;;;;;;;4.00;2.10;;;;;;;-3.33;71.82;98423.80;104658;1271;75994;-28
2022/04/04 01:05:10;;;;;;;5.20;2.20;;;;;;;-3.48;72.45;98429.55;104759;1271;74405;-28
2022/04/04 01:07:41;;;;;;;3.90;2.10;;;;;;;-3.63;73.40;98430.07;105077;1270;61221;-28
2022/04/04 01:10:10;;;;;;;2.60;2.00;;;;;;;-3.73;73.65;98432.75;104908;1271;61039;-28
2022/04/04 01:12:51;;;;;;;1.80;1.40;;;;;;;-3.28;72.83;98436.69;104958;1274;75548;-28
2022/04/04 01:15:22;;;;;;;3.30;1.50;;;;;;;-2.66;70.35;98439.23;105115;1271;73981;-28
2022/04/04 01:17:52;;;;;;;4.00;1.90;;;;;;;-2.57;69.52;98439.23;105009;1271;74451;-28
2022/04/04 01:20:22;;;;;;;2.90;1.90;;;;;;;-2.72;69.76;98436.58;104926;1271;61436;-28
2022/04/04 01:22:52;;;;;;;2.70;1.80;;;;;;;-2.93;70.38;98432.26;104775;1271;61079;-28
2022/04/04 01:25:26;;;;;;;3.70;2.10;;;;;;;-3.14;71.21;98435.36;104939;1271;75503;-28
2022/04/04 01:27:56;;;;;;;3.40;2.30;;;;;;;-3.35;71.97;98439.16;104810;1271;74987;-28
2022/04/04 01:30:26;;;;;;;2.20;1.90;;;;;;;-3.54;72.51;98440.46;104800;1271;73258;-28
2022/04/04 01:32:55;;;;;;;3.00;2.00;;;;;;;-3.70;73.23;98441.32;104928;1271;61134;-28
2022/04/04 01:35:25;;;;;;;1.70;1.60;;;;;;;-3.82;73.77;98444.09;104957;1271;61371;-28
2022/04/04 01:37:55;;;;;;;3.80;2.10;;;;;;;-3.50;73.19;98445.23;104821;1271;76229;-28
2022/04/04 01:40:25;;;;;;;2.90;1.80;;;;;;;-2.87;70.67;98449.52;104941;1271;75005;-28
2022/04/04 01:42:56;;;;;;;3.10;2.80;;;;;;;-2.76;69.82;98449.98;104898;1271;74419;-28
2022/04/04 01:48:14;;;;;;;2.60;2.20;;;;;;;-3.17;70.82;98457.36;104701;1271;61176;-28
2022/04/04 01:50:45;;;;;;;3.90;2.10;;;;;;;-3.41;71.90;98456.16;104805;1272;73578;-28
2022/04/04 01:53:26;;;;;;;3.10;2.00;;;;;;;-3.66;72.74;98453.91;104934;1271;74099;-28
2022/04/04 01:55:58;;;;;;;2.20;1.30;;;;;;;-3.88;73.62;98456.33;104749;1271;73408;-28
2022/04/04 01:58:28;;;;;;;4.10;1.90;;;;;;;-4.08;74.23;98452.88;104730;1271;62409;-29
2022/04/04 02:01:00;;;;;;;3.00;2.40;;;;;;;-4.24;74.94;98456.75;104945;1271;61128;-28
2022/04/04 02:03:35;;;;;;;2.50;1.70;;;;;;;-4.28;75.52;98461.46;104767;1274;75537;-28
2022/04/04 02:06:05;;;;;;;4.20;2.30;;;;;;;-3.64;74.03;98462.84;104811;1271;75064;-28
2022/04/04 02:08:35;;;;;;;4.60;2.20;;;;;;;-3.12;71.69;98465.19;104897;1271;72289;-28
2022/04/04 02:11:07;;;;;;;2.80;1.80;;;;;;;-3.09;71.30;98466.44;104883;1271;61392;-28
2022/04/04 02:13:38;;;;;;;3.50;1.60;;;;;;;-3.29;71.52;98476.95;104814;1271;61169;-28
2022/04/04 02:16:07;;;;;;;3.10;2.20;;;;;;;-3.49;72.24;98477.61;104768;1274;74372;-28
2022/04/04 02:18:37;;;;;;;4.30;2.00;;;;;;;-3.70;73.03;98481.20;104702;1274;75031;-28
2022/04/04 02:21:10;;;;;;;2.00;1.30;;;;;;;-3.94;73.96;98479.90;104729;1274;74423;-28
2022/04/04 02:23:39;;;;;;;2.40;1.80;;;;;;;-4.10;74.41;98481.42;104725;1271;61125;-28
2022/04/04 02:26:09;;;;;;;4.50;2.30;;;;;;;-4.26;74.90;98487.17;104857;1271;61720;-28
2022/04/04 02:28:38;;;;;;;2.70;1.80;;;;;;;-4.37;75.44;98490.20;104785;1272;75539;-28
2022/04/04 02:31:08;;;;;;;3.90;2.40;;;;;;;-3.88;74.49;98489.21;104815;1271;76048;-28
2022/04/04 02:33:37;;;;;;;4.30;2.60;;;;;;;-3.25;72.31;98493.63;104800;1271;74143;-28
2022/04/04 02:36:08;;;;;;;2.40;1.50;;;;;;;-3.16;71.45;98495.02;104785;1271;61086;-28
2022/04/04 02:38:39;;;;;;;3.40;1.90;;;;;;;-3.34;71.75;98492.74;104840;1272;61021;-28
2022/04/04 02:41:08;;;;;;;3.20;2.30;;;;;;;-3.58;72.84;98494.20;104794;1274;75530;-28
2022/04/04 02:43:39;;;;;;;2.50;1.70;;;;;;;-3.78;73.08;98493.50;104785;1274;76001;-28
2022/04/04 02:46:11;;;;;;;3.50;2.40;;;;;;;-4.00;73.81;98494.86;104787;1274;73423;-28
2022/04/04 02:48:40;;;;;;;3.30;2.30;;;;;;;-4.17;74.79;98498.23;104804;1271;61521;-28
2022/04/04 02:51:10;;;;;;;4.70;2.50;;;;;;;-4.31;75.69;98496.11;104828;1274;62057;-28
2022/04/04 02:53:40;;;;;;;3.10;2.00;;;;;;;-4.37;76.33;98494.77;104824;1274;75345;-27
2022/04/04 02:59:00;;;;;;;2.60;1.70;;;;;;;-3.31;72.88;98494.35;104601;1274;74488;-28
2022/04/04 03:01:30;;;;;;;3.40;2.40;;;;;;;-3.32;72.44;98498.45;104692;1274;61520;-28
2022/04/04 03:04:00;;;;;;;5.30;2.10;;;;;;;-3.53;72.64;98495.58;104637;1274;62046;-28
2022/04/04 03:06:29;;;;;;;6.00;2.90;;;;;;;-3.75;73.44;98501.18;104823;1274;73861;-28
2022/04/04 03:08:59;;;;;;;5.50;2.10;;;;;;;-3.98;74.20;98500.73;104815;1274;75775;-26
2022/04/04 03:11:39;;;;;;;4.00;2.20;;;;;;;-4.18;75.05;98505.40;104865;1274;74363;-26
2022/04/04 03:14:08;;;;;;;3.90;2.40;;;;;;;-4.38;75.31;98505.45;104958;1274;61134;-27
2022/04/04 03:16:38;;;;;;;3.60;1.90;;;;;;;-4.49;76.21;98510.38;104901;1271;61130;-27
2022/04/04 03:19:07;;;;;;;3.30;2.20;;;;;;;-4.04;75.61;98511.74;105125;1271;74491;-26
2022/04/04 03:21:36;;;;;;;2.20;1.70;;;;;;;-3.42;73.17;98516.95;105099;1271;75777;-27
2022/04/04 03:24:12;;;;;;;3.60;2.10;;;;;;;-3.33;72.17;98514.46;104834;1271;74510;-27
2022/04/04 03:26:41;;;;;;;4.40;2.30;;;;;;;-3.48;72.22;98518.34;104635;1271;61067;-26
2022/04/04 03:29:10;;;;;;;6.00;2.40;;;;;;;-3.71;73.11;98518.04;104899;1271;62138;-26
2022/04/04 03:31:39;;;;;;;3.60;2.00;;;;;;;-3.93;74.18;98518.38;105085;1271;74569;-26
2022/04/04 03:34:08;;;;;;;3.30;1.90;;;;;;;-4.12;74.87;98525.39;104844;1271;75780;-26
2022/04/04 03:36:40;;;;;;;7.40;2.70;;;;;;;-4.27;75.48;98529.39;104791;1271;74276;-27
2022/04/04 03:39:12;;;;;;;2.70;2.00;;;;;;;-4.40;76.34;98529.44;104944;1271;61116;-26
2022/04/04 03:41:45;;;;;;;5.30;2.90;;;;;;;-4.47;76.76;98531.66;105099;1271;62093;-27
2022/04/04 03:44:14;;;;;;;3.60;2.60;;;;;;;-3.89;75.73;98528.92;104828;1271;74572;-26
2022/04/04 03:46:43;;;;;;;4.60;3.10;;;;;;;-3.20;72.92;98533.70;104828;1271;76090;-26
2022/04/04 03:49:13;;;;;;;3.80;2.20;;;;;;;-3.09;71.82;98533.01;104817;1271;72545;-27
2022/04/04 03:51:42;;;;;;;4.10;2.40;;;;;;;-3.24;72.23;98534.87;104924;1271;61000;-27
2022/04/04 03:54:12;;;;;;;6.50;3.60;;;;;;;-3.44;72.72;98537.73;104961;1271;61120;-26
2022/04/04 03:56:42;;;;;;;4.70;2.00;;;;;;;-3.66;74.12;98535.36;104835;1271;74393;-27
2022/04/04 03:59:12;;;;;;;3.60;2.30;;;;;;;-3.80;74.52;98537.14;104920;1271;75769;-26
2022/04/04 04:01:42;;;;;;;4.00;2.60;;;;;;;-3.94;75.14;98537.05;104914;1271;74254;-27
2022/04/04 04:04:11;;;;;;;4.70;2.70;;;;;;;-4.03;75.81;98539.73;104951;1271;61249;-26
2022/04/04 04:06:41;;;;;;;4.60;2.60;;;;;;;-4.06;76.12;98538.77;104806;1272;61408;-26
2022/04/04 04:09:27;;;;;;;4.20;2.10;;;;;;;-3.37;74.89;98542.23;104773;1271;75526;-27
2022/04/04 04:11:56;;;;;;;5.70;3.00;;;;;;;-2.67;72.45;98546.35;104960;1271;74991;-27
2022/04/04 04:14:27;;;;;;;3.90;2.90;;;;;;;-2.50;71.50;98548.47;104919;1271;71996;-27
2022/04/04 04:16:57;;;;;;;6.10;3.60;;;;;;;-2.57;71.51;98550.58;104733;1271;61244;-27
2022/04/04 04:22:14;;;;;;;4.80;2.70;;;;;;;-2.75;72.25;98552.06;104926;1272;74730;-27
2022/04/04 04:24:45;;;;;;;6.10;3.10;;;;;;;-2.88;72.84;98550.45;105128;1274;76015;-27
2022/04/04 04:27:14;;;;;;;6.50;3.40;;;;;;;-3.04;73.69;98549.33;104762;1272;74449;-32
2022/04/04 04:29:52;;;;;;;5.40;3.20;;;;;;;-3.19;74.56;98555.61;104576;1274;61337;-26
2022/04/04 04:32:22;;;;;;;4.80;2.50;;;;;;;-3.21;75.01;98557.53;104909;1272;61043;-26
2022/04/04 04:34:52;;;;;;;7.50;3.80;;;;;;;-2.56;73.28;98560.41;104894;1271;75411;-27
2022/04/04 04:37:21;;;;;;;4.90;2.90;;;;;;;-2.07;71.35;98559.14;104779;1271;75980;-27
2022/04/04 04:39:50;;;;;;;5.20;3.50;;;;;;;-1.99;70.92;98562.39;104793;1271;74523;-27
2022/04/04 04:42:22;;;;;;;6.30;4.00;;;;;;;-2.09;71.23;98569.42;104797;1271;61140;-26
2022/04/04 04:44:51;;;;;;;6.10;3.70;;;;;;;-2.23;71.51;98570.27;104813;1271;61128;-26
2022/04/04 04:47:20;;;;;;;5.80;3.90;;;;;;;-2.36;71.89;98570.91;104817;1271;75535;-26
2022/04/04 04:49:55;;;;;;;5.80;3.20;;;;;;;-2.48;72.31;98569.13;104835;1271;76108;-26
2022/04/04 04:52:25;;;;;;;9.90;4.20;;;;;;;-2.56;72.68;98573.34;104630;1274;74871;-27
2022/04/04 04:54:55;;;;;;;4.70;3.20;;;;;;;-2.61;72.68;98575.69;104754;1273;61670;-27
2022/04/04 04:57:24;;;;;;;8.20;4.10;;;;;;;-2.69;72.93;98578.72;104808;1271;61106;-27
2022/04/04 04:59:54;;;;;;;6.70;3.80;;;;;;;-2.30;72.44;98582.25;104746;1274;74388;-27
2022/04/04 05:02:23;;;;;;;5.90;3.30;;;;;;;-1.65;69.68;98580.38;104844;1271;75080;-27
2022/04/04 05:04:52;;;;;;;6.80;3.70;;;;;;;-1.53;68.77;98582.61;104827;1271;74157;-27
2022/04/04 05:07:21;;;;;;;6.40;4.40;;;;;;;-1.72;68.78;98580.95;104848;1271;61121;-27
2022/04/04 05:09:51;;;;;;;7.30;4.00;;;;;;;-1.91;69.62;98584.08;104832;1271;62020;-27
2022/04/04 05:12:20;;;;;;;6.80;4.30;;;;;;;-2.04;70.09;98585.41;104827;1271;74665;-27
2022/04/04 05:14:50;;;;;;;9.60;4.50;;;;;;;-2.22;70.79;98582.31;104841;1271;74972;-27
2022/04/04 05:17:19;;;;;;;3.50;2.60;;;;;;;-2.30;71.24;98585.84;104718;1271;74777;-27
2022/04/04 05:19:49;;;;;;;11.00;4.10;;;;;;;-2.34;71.65;98589.73;104817;1271;61488;-26
2022/04/04 05:22:19;;;;;;;7.20;3.80;;;;;;;-2.37;71.93;98592.05;104833;1271;61223;-27
2022/04/04 05:24:48;;;;;;;5.80;2.50;;;;;;;-2.23;72.10;98596.64;104703;1271;76005;-27
2022/04/04 05:27:17;;;;;;;5.30;3.50;;;;;;;-1.34;69.81;98593.25;104975;1271;76057;-27
2022/04/04 05:29:54;;;;;;;6.00;3.90;;;;;;;-0.82;67.72;98595.06;104917;1271;73048;-27
2022/04/04 05:32:23;;;;;;;5.20;3.20;;;;;;;-0.86;67.44;98592.17;104766;1272;61233;-27
2022/04/04 05:34:52;;;;;;;7.10;3.60;;;;;;;-1.03;67.70;98596.46;104965;1270;61137;-28
2022/04/04 05:37:22;;;;;;;8.00;3.90;;;;;;;-1.15;68.19;98593.22;105063;1271;74336;-29
2022/04/04 05:39:51;;;;;;;4.80;3.20;;;;;;;-1.30;68.83;98597.41;105160;1271;76957;-25
2022/04/04 05:42:22;;;;;;;5.30;3.80;;;;;;;-1.30;69.28;98597.23;105077;1271;74410;-27
2022/04/04 05:44:51;;;;;;;4.80;2.60;;;;;;;-1.35;68.97;98599.80;104727;1274;60999;-27
2022/04/04 05:47:22;;;;;;;7.30;4.50;;;;;;;-1.46;69.59;98606.20;104805;1271;62585;-29
2022/04/04 05:49:51;;;;;;;12.90;4.10;;;;;;;-1.49;69.93;98605.97;104989;1271;75675;-26
2022/04/04 05:52:23;;;;;;;6.50;4.60;;;;;;;-1.45;69.74;98602.23;104893;1271;75865;-26
2022/04/04 05:54:58;;;;;;;9.10;4.30;;;;;;;-1.38;69.43;98601.45;104831;1271;73445;-26
2022/04/04 05:57:29;;;;;;;5.80;3.30;;;;;;;-1.20;69.21;98601.92;105013;1271;61050;-27
2022/04/04 05:59:58;;;;;;;5.70;3.60;;;;;;;-1.12;68.77;98606.38;105132;1272;61089;-29
2022/04/04 06:02:27;;;;;;;8.80;6.20;;;;;;;-1.01;69.03;98606.61;105108;1271;75544;-30
2022/04/04 06:04:57;;;;;;;6.30;3.90;;;;;;;-1.11;68.16;98604.80;105105;1271;75030;-28
2022/04/04 06:16:31;;;;;;;4.60;3.10;;;;;;;-0.22;66.35;98608.40;105058;1270;61833;-26
2022/04/04 06:19:20;;;;;;;4.40;2.70;;;;;;;0.34;64.00;98611.52;104620;1274;72654;-26
2022/04/04 06:21:50;;;;;;;4.50;3.30;;;;;;;0.41;64.08;98615.65;104601;1274;74585;-26
2022/04/04 06:24:39;;;;;;;8.10;3.90;;;;;;;0.29;63.03;98613.95;104513;1274;74276;-26
2022/04/04 06:27:09;;;;;;;7.30;4.00;;;;;;;0.20;63.18;98609.95;104627;1274;61290;-26
2022/04/04 06:29:38;;;;;;;6.60;3.40;;;;;;;0.24;63.19;98616.08;104626;1274;61133;-26
2022/04/04 06:32:10;;;;;;;7.90;5.60;;;;;;;0.30;63.42;98617.86;104602;1274;73812;-27
2022/04/04 06:34:40;;;;;;;7.50;4.70;;;;;;;0.29;64.22;98619.29;104457;1274;76111;-26
2022/04/04 06:37:10;;;;;;;5.50;4.10;;;;;;;0.33;63.69;98617.70;104631;1271;74195;-26
2022/04/04 06:39:39;;;;;;;4.80;2.90;;;;;;;0.24;63.75;98622.40;104814;1271;61071;-26
2022/04/04 06:42:08;;;;;;;7.20;4.10;;;;;;;0.28;63.32;98622.92;104918;1271;61143;-27
2022/04/04 06:44:50;;;;;;;10.10;5.10;;;;;;;0.41;64.91;98631.70;104870;1271;75427;-27
2022/04/04 06:47:21;;;;;;;7.90;4.60;;;;;;;0.55;65.01;98630.02;104926;1271;76008;-27
2022/04/04 06:49:52;;;;;;;8.70;3.70;;;;;;;0.63;63.05;98631.71;104891;1271;74398;-27
2022/04/04 06:52:42;;;;;;;7.50;4.00;;;;;;;0.69;62.52;98627.66;104849;1271;61558;-27
2022/04/04 06:55:31;;;;;;;6.60;4.00;;;;;;;0.64;63.20;98626.52;104841;1271;61144;-27
2022/04/04 06:58:01;;;;;;;7.80;4.40;;;;;;;0.71;62.50;98627.20;105156;1271;74486;-26
2022/04/04 07:00:30;;;;;;;6.50;3.60;;;;;;;0.77;62.24;98628.66;105089;1271;76155;-26
2022/04/04 07:02:59;;;;;;;8.00;4.10;;;;;;;0.69;61.66;98633.63;105130;1271;74360;-27
2022/04/04 07:05:29;;;;;;;9.30;5.00;;;;;;;0.76;62.05;98640.48;104863;1274;61063;-27
2022/04/04 07:07:58;;;;;;;8.40;5.40;;;;;;;0.74;61.28;98640.92;104826;1274;62351;-27
2022/04/04 07:10:29;;;;;;;7.00;4.30;;;;;;;0.53;62.00;98645.66;105171;1271;75412;-26
2022/04/04 07:12:59;;;;;;;9.10;4.60;;;;;;;0.74;61.72;98645.02;105064;1274;76289;-27
2022/04/04 07:15:28;;;;;;;7.00;4.20;;;;;;;0.91;61.12;98642.48;105116;1271;74421;-28
2022/04/04 07:17:57;;;;;;;3.80;3.10;;;;;;;1.07;61.03;98642.09;104893;1274;61113;-28
2022/04/04 07:20:26;;;;;;;6.40;4.10;;;;;;;1.07;59.70;98647.89;104845;1273;61176;-26
2022/04/04 07:22:55;;;;;;;6.80;4.00;;;;;;;1.05;60.96;98652.42;104922;1273;74503;-26
2022/04/04 07:25:25;;;;;;;4.80;3.40;;;;;;;1.19;59.97;98649.02;104754;1274;76228;-27
2022/04/04 07:27:54;;;;;;;8.10;4.40;;;;;;;1.31;59.98;98658.20;104820;1274;74159;-27
2022/04/04 07:30:23;;;;;;;6.90;3.70;;;;;;;1.33;60.13;98655.70;104813;1272;348970;-26
2022/04/04 07:32:52;;;;;;;8.10;4.00;;;;;;;1.41;60.41;98661.64;104943;1273;61097;-27
2022/04/04 07:35:21;;;;;;;5.80;4.00;;;;;;;1.63;59.36;98662.08;104942;1274;75621;-27
2022/04/04 07:37:51;;;;;;;14.80;5.80;;;;;;;1.84;58.10;98668.19;104763;1274;75443;-26
2022/04/04 07:40:20;;;;;;;8.50;3.90;;;;;;;1.98;57.86;98670.20;104815;1271;73204;-26
2022/04/04 07:42:50;;;;;;;7.00;3.80;;;;;;;2.04;57.17;98669.04;104638;1274;61246;-26
2022/04/04 07:45:19;;;;;;;6.70;4.10;;;;;;;2.13;57.84;98662.61;104860;1274;61013;-26
2022/04/04 07:47:50;;;;;;;7.20;4.80;;;;;;;2.13;56.45;98667.88;104753;1274;75521;-26
2022/04/04 07:50:20;;;;;;;6.30;3.30;;;;;;;2.01;55.94;98670.23;104819;1274;76079;-26
2022/04/04 07:52:50;;;;;;;6.40;3.20;;;;;;;2.16;56.11;98663.77;104820;1274;73385;-26
2022/04/04 07:55:19;;;;;;;7.20;4.00;;;;;;;2.32;55.04;98668.94;104876;1274;61151;-26
2022/04/04 07:58:08;;;;;;;6.10;3.70;;;;;;;2.58;56.12;98672.02;104775;1274;61044;-26
2022/04/04 08:00:38;;;;;;;4.40;3.50;;;;;;;2.68;53.48;98670.58;104790;1274;74505;-26
2022/04/04 08:03:07;;;;;;;4.20;3.20;;;;;;;2.62;55.00;98664.78;104797;1274;76111;-27
2022/04/04 08:05:54;;;;;;;5.80;3.80;;;;;;;2.72;55.31;98664.41;104863;1274;74388;-26
2022/04/04 08:08:24;;;;;;;6.80;3.70;;;;;;;2.78;53.00;98666.33;104780;1274;61155;-26
2022/04/04 08:10:53;;;;;;;12.60;3.70;;;;;;;2.85;52.63;98663.88;105119;1274;62042;-26
2022/04/04 08:13:44;;;;;;;4.50;3.00;;;;;;;3.14;51.70;98661.06;104999;1272;76909;-26
2022/04/04 08:16:13;;;;;;;10.30;4.20;;;;;;;3.27;50.62;98665.10;104744;1274;74012;-26
2022/04/04 08:18:50;;;;;;;9.00;4.30;;;;;;;2.98;52.96;98666.08;104819;1271;72955;-26
2022/04/04 08:21:20;;;;;;;5.30;3.90;;;;;;;3.05;51.06;98664.30;104937;1271;61042;-26
2022/04/04 08:23:49;;;;;;;6.40;3.80;;;;;;;2.92;50.84;98658.48;104843;1271;61081;-26
2022/04/04 08:26:18;;;;;;;7.00;3.60;;;;;;;3.12;51.83;98658.78;104791;1272;75622;-26
2022/04/04 08:28:48;;;;;;;4.50;2.60;;;;;;;3.29;50.97;98657.44;104932;1271;76073;-26
2022/04/04 08:31:17;;;;;;;3.40;2.50;;;;;;;3.34;50.17;98662.65;105062;1272;74381;-26
2022/04/04 08:33:48;;;;;;;6.90;3.60;;;;;;;3.17;48.42;98655.40;105137;1271;61444;-26
2022/04/04 08:36:17;;;;;;;3.10;2.20;;;;;;;3.30;51.91;98660.64;105126;1271;61851;-26
2022/04/04 08:38:46;;;;;;;4.40;2.70;;;;;;;3.38;48.71;98649.02;105167;1271;75483;-26
2022/04/04 08:41:17;;;;;;;6.60;3.20;;;;;;;3.20;49.49;98658.65;105123;1269;74697;-26
2022/04/04 08:43:49;;;;;;;4.10;2.30;;;;;;;3.41;49.51;98656.10;105093;1271;74183;-27
2022/04/04 08:46:18;;;;;;;4.20;2.80;;;;;;;3.61;47.01;98651.99;104861;1272;61146;-26
2022/04/04 08:48:49;;;;;;;3.80;2.30;;;;;;;3.83;46.74;98653.59;104857;1271;61100;-26
2022/04/04 08:51:18;;;;;;;4.60;2.60;;;;;;;3.81;45.45;98642.41;105000;1271;74116;-26
2022/04/04 08:55:52;;;;;;;10.60;2.60;;;;;;;4.20;45.29;98648.48;101840;1310;601275;-26
2022/04/04 08:58:21;;;;;;;4.60;2.40;;;;;;;4.05;43.69;98640.09;104231;1284;61166;-26
2022/04/04 09:00:52;;;;;;;5.10;2.40;;;;;;;3.87;43.50;98640.66;104164;1284;61190;-26
2022/04/04 09:03:22;;;;;;;3.30;2.00;;;;;;;3.81;45.82;98624.05;104401;1284;72971;-26
2022/04/04 09:05:53;;;;;;;3.20;1.70;;;;;;;3.53;44.38;98621.54;104248;1285;75053;-26
2022/04/04 09:08:26;;;;;;;4.80;2.80;;;;;;;3.21;45.45;98635.44;103876;1284;570399;-27
2022/04/04 09:10:57;;;;;;;8.40;2.90;;;;;;;2.81;48.95;98641.64;104355;1284;61325;-28
2022/04/04 09:13:27;;;;;;;5.40;2.60;;;;;;;2.74;49.43;98641.34;103934;1281;62067;-27
2022/04/04 09:16:00;;;;;;;3.30;2.10;;;;;;;3.04;50.89;98638.80;104077;1281;72925;-27
2022/04/04 09:18:37;;;;;;;6.10;2.90;;;;;;;3.38;49.50;98631.02;104469;1284;75003;-27
2022/04/04 09:21:08;;;;;;;5.30;2.70;;;;;;;3.03;46.97;98628.72;104189;1281;73152;-27
2022/04/04 09:23:48;;;;;;;2.90;1.90;;;;;;;2.82;49.39;98632.17;104282;1281;61292;-27
2022/04/04 09:26:34;;;;;;;4.80;2.50;;;;;;;2.52;48.89;98622.11;104458;1281;62084;-27
2022/04/04 09:29:23;;;;;;;2.90;1.90;;;;;;;2.58;49.44;98621.14;104452;1281;73709;-27
2022/04/04 09:31:53;;;;;;;5.90;2.60;;;;;;;2.75;49.17;98614.04;104481;1281;77712;-28
2022/04/04 09:34:22;;;;;;;4.20;2.40;;;;;;;2.87;46.57;98609.40;104370;1281;75085;-28
2022/04/04 09:36:51;;;;;;;5.60;2.70;;;;;;;2.73;47.45;98620.12;104326;1281;61096;-29
2022/04/04 09:39:20;;;;;;;3.80;2.60;;;;;;;2.63;47.81;98614.50;104493;1281;61079;-28
2022/04/04 09:41:50;;;;;;;6.10;2.40;;;;;;;2.79;46.18;98603.02;104334;1284;73464;-28
2022/04/04 09:44:25;;;;;;;2.10;1.40;;;;;;;2.85;46.03;98609.32;104181;1284;75998;-28
2022/04/04 09:46:55;;;;;;;2.10;1.50;;;;;;;3.15;44.36;98593.93;103679;1287;73365;-28
2022/04/04 09:49:24;;;;;;;1.30;1.00;;;;;;;3.35;44.09;98608.01;104355;1281;61151;-28
2022/04/04 09:51:55;;;;;;;3.40;1.60;;;;;;;3.46;44.44;98609.96;104316;1281;61112;-28
2022/04/04 09:54:28;;;;;;;3.50;2.30;;;;;;;3.18;44.27;98598.55;104409;1281;73720;-28
2022/04/04 09:57:09;;;;;;;4.30;2.40;;;;;;;3.47;45.72;98592.73;104481;1281;76083;-28
2022/04/04 09:59:40;;;;;;;7.60;2.00;;;;;;;3.66;44.25;98603.13;104337;1281;74729;-28
2022/04/04 10:02:12;;;;;;;3.60;2.30;;;;;;;3.98;45.59;98592.43;104136;1284;61511;-28
2022/04/04 10:04:44;;;;;;;3.00;2.00;;;;;;;3.89;44.28;98594.52;104307;1281;62062;-26
2022/04/04 10:07:14;;;;;;;4.50;2.20;;;;;;;3.57;44.44;98584.42;104523;1281;73513;-26
2022/04/04 10:09:43;;;;;;;4.00;2.00;;;;;;;3.21;46.02;98593.73;104472;1281;74998;-26
2022/04/04 10:12:36;;;;;;;2.90;2.00;;;;;;;3.00;46.20;98590.30;104588;1281;74150;-27
2022/04/04 10:15:08;;;;;;;3.40;2.20;;;;;;;2.86;44.65;98595.41;104364;1281;61268;-26
2022/04/04 10:17:39;;;;;;;;;;;;;;;2.72;45.89;98596.83;104472;1281;61629;-26
2022/04/04 10:20:09;;;;;;;4.60;2.90;;;;;;;2.56;45.70;98598.42;104588;1281;74987;-29
2022/04/04 10:22:39;;;;;;;7.60;2.20;;;;;;;2.41;46.70;98599.60;104436;1281;77294;-27
2022/04/04 10:25:09;;;;;;;3.90;2.10;;;;;;;2.53;47.51;98605.81;104626;1281;71372;-26
2022/04/04 10:27:38;;;;;;;3.40;1.70;;;;;;;2.62;48.28;98602.42;104278;1281;61165;-26
2022/04/04 10:30:08;;;;;;;4.20;2.30;;;;;;;2.78;48.20;98595.00;104285;1281;61028;-26
2022/04/04 10:32:49;;;;;;;4.70;2.50;;;;;;;2.88;47.59;98585.88;104298;1281;74741;-26
2022/04/04 10:35:20;;;;;;;3.80;2.00;;;;;;;2.77;48.21;98590.42;104415;1280;76143;-27
2022/04/04 10:37:49;;;;;;;2.80;2.00;;;;;;;2.58;48.18;98590.45;104446;1281;74508;-27
2022/04/04 10:40:20;;;;;;;4.00;2.60;;;;;;;2.39;49.72;98589.13;104575;1281;61038;-27
2022/04/04 10:43:15;;;;;;;3.10;2.40;;;;;;;2.28;52.83;98604.08;104570;1281;61807;-27
2022/04/04 10:45:58;;;;;;;4.70;2.60;;;;;;;2.24;53.60;98607.38;104490;1281;72474;-26
2022/04/04 10:48:35;;;;;;;5.30;2.70;;;;;;;2.29;52.59;98603.19;104491;1284;76029;-26
2022/04/04 10:51:20;;;;;;;7.50;2.90;;;;;;;2.41;53.07;98602.70;104518;1281;74667;-26
2022/04/04 10:53:51;;;;;;;5.80;2.40;;;;;;;2.80;53.32;98599.66;104414;1281;61032;-27
2022/04/04 10:56:21;;;;;;;3.20;2.00;;;;;;;3.23;52.17;98580.09;104465;1281;61191;-27
2022/04/04 10:58:53;;;;;;;3.40;2.30;;;;;;;3.02;53.61;98581.29;104189;1281;73693;-28
2022/04/04 11:01:22;;;;;;;4.80;3.10;;;;;;;2.87;52.31;98592.58;104279;1281;76100;-27
2022/04/04 11:03:52;;;;;;;6.70;3.30;;;;;;;2.95;52.82;98589.56;104194;1281;74487;-27
2022/04/04 11:09:36;;;;;;;5.30;2.90;;;;;;;3.42;52.61;98587.91;104502;1281;62290;-28
2022/04/04 11:12:25;;;;;;;4.70;2.90;;;;;;;3.42;53.30;98583.09;104347;1278;74553;-27
2022/04/04 11:15:06;;;;;;;2.50;2.10;;;;;;;3.53;52.68;98585.55;104487;1278;76179;-27
2022/04/04 11:17:56;;;;;;;4.10;2.20;;;;;;;4.00;52.54;98590.05;104392;1278;73194;-27
2022/04/04 11:20:53;;;;;;;2.20;1.70;;;;;;;4.56;52.01;98586.11;104438;1277;62130;-27
2022/04/04 11:23:28;;;;;;;3.00;2.30;;;;;;;4.73;50.94;98587.41;104762;1277;61791;-27
2022/04/04 11:25:58;;;;;;;6.30;3.40;;;;;;;4.73;52.70;98587.77;104702;1277;73594;-27
2022/04/04 11:28:38;;;;;;;3.90;3.00;;;;;;;5.08;50.41;98580.67;104630;1277;74553;-26
2022/04/04 11:31:09;;;;;;;3.90;2.70;;;;;;;4.91;51.09;98580.09;104694;1276;73419;-26
2022/04/04 11:33:47;;;;;;;4.10;2.80;;;;;;;4.70;49.98;98573.16;104634;1278;61329;-26
2022/04/04 11:36:22;;;;;;;4.00;2.90;;;;;;;4.23;50.03;98564.95;104648;1277;61828;-26
2022/04/04 11:38:57;;;;;;;6.10;3.90;;;;;;;3.88;52.48;98565.58;104618;1277;73797;-26
2022/04/04 11:41:35;;;;;;;3.70;2.50;;;;;;;3.63;51.88;98570.00;104628;1277;74957;-26
2022/04/04 11:44:06;;;;;;;5.80;3.10;;;;;;;3.63;51.77;98567.41;104650;1277;74348;-26
2022/04/04 11:46:36;;;;;;;3.90;2.60;;;;;;;3.30;55.23;98557.34;104489;1278;61319;-26
2022/04/04 11:49:07;;;;;;;4.60;3.00;;;;;;;2.78;56.73;98563.06;104733;1277;61906;-26
2022/04/04 11:51:36;;;;;;;5.00;3.00;;;;;;;2.49;55.11;98560.41;104867;1276;73777;-26
2022/04/04 11:54:11;;;;;;;3.20;2.10;;;;;;;2.32;53.79;98571.83;104863;1277;76066;-26
2022/04/04 11:56:44;;;;;;;;;;;;;;;2.42;53.27;98562.89;104716;1277;72480;-25
2022/04/04 11:59:16;;;;;;;3.60;2.40;;;;;;;2.35;52.38;98556.96;104721;1277;61150;-28
2022/04/04 12:01:46;;;;;;;3.90;2.50;;;;;;;2.33;55.68;98568.86;104651;1277;61899;-27
2022/04/04 12:04:17;;;;;;;4.60;2.90;;;;;;;2.37;57.51;98568.14;104744;1277;74590;-24
2022/04/04 12:06:48;;;;;;;3.60;2.70;;;;;;;2.34;57.90;98567.79;104760;1277;74968;-29
2022/04/04 12:09:37;;;;;;;5.20;3.30;;;;;;;2.29;58.93;98567.73;104625;1277;75519;-28
2022/04/04 12:12:08;;;;;;;6.60;3.50;;;;;;;2.22;58.96;98562.78;104435;1277;61096;-27
2022/04/04 12:14:41;;;;;;;5.20;3.20;;;;;;;2.07;60.16;98566.15;104599;1277;61029;-28